sensor_id;sensor_type;location;lat;lon;timestamp;P1;durP1;ratioP1;P2;durP2;ratioP2
7080;SDS011;3582;51.506;11.948;2024-02-28T00:00:41;36.63;;;22.67;;
7080;SDS011;3582;51.506;11.948;2024-02-28T00:03:07;38.93;;;23.63;;
7080;SDS011;3582;51.506;11.948;2024-02-28T00:05:33;39.20;;;25.00;;
7080;SDS011;3582;51.506;11.948;2024-02-28T00:07:59;34.37;;;23.27;;
7080;SDS011;3582;51.506;11.948;2024-02-28T00:10:25;42.17;;;25.00;;
7080;SDS011;3582;51.506;11.948;2024-02-28T00:12:51;37.60;;;25.40;;
7080;SDS011;3582;51.506;11.948;2024-02-28T00:15:17;41.07;;;25.20;;
7080;SDS011;3582;51.506;11.948;2024-02-28T00:17:43;36.93;;;23.30;;
7080;SDS011;3582;51.506;11.948;2024-02-28T00:20:09;38.45;;;23.42;;
7080;SDS011;3582;51.506;11.948;2024-02-28T00:22:36;36.47;;;24.45;;
7080;SDS011;3582;51.506;11.948;2024-02-28T00:25:02;36.53;;;24.13;;
7080;SDS011;3582;51.506;11.948;2024-02-28T00:27:31;38.95;;;23.67;;
7080;SDS011;3582;51.506;11.948;2024-02-28T00:29:57;36.60;;;22.80;;
7080;SDS011;3582;51.506;11.948;2024-02-28T00:32:23;34.90;;;22.23;;
7080;SDS011;3582;51.506;11.948;2024-02-28T00:34:48;30.97;;;20.50;;
7080;SDS011;3582;51.506;11.948;2024-02-28T00:37:14;36.53;;;23.13;;
7080;SDS011;3582;51.506;11.948;2024-02-28T00:39:41;41.95;;;22.77;;
7080;SDS011;3582;51.506;11.948;2024-02-28T00:42:07;37.33;;;24.20;;
7080;SDS011;3582;51.506;11.948;2024-02-28T00:44:33;34.80;;;22.20;;
7080;SDS011;3582;51.506;11.948;2024-02-28T00:46:59;35.57;;;23.20;;
7080;SDS011;3582;51.506;11.948;2024-02-28T00:49:25;35.47;;;22.43;;
7080;SDS011;3582;51.506;11.948;2024-02-28T00:51:51;32.10;;;21.83;;
7080;SDS011;3582;51.506;11.948;2024-02-28T00:54:17;37.67;;;23.70;;
7080;SDS011;3582;51.506;11.948;2024-02-28T00:56:43;37.40;;;22.80;;
7080;SDS011;3582;51.506;11.948;2024-02-28T00:59:09;38.43;;;24.90;;
7080;SDS011;3582;51.506;11.948;2024-02-28T01:01:37;36.80;;;25.42;;
7080;SDS011;3582;51.506;11.948;2024-02-28T01:04:03;32.47;;;21.33;;
7080;SDS011;3582;51.506;11.948;2024-02-28T01:06:29;30.90;;;21.23;;
7080;SDS011;3582;51.506;11.948;2024-02-28T01:08:55;36.63;;;22.87;;
7080;SDS011;3582;51.506;11.948;2024-02-28T01:11:21;32.60;;;22.50;;
7080;SDS011;3582;51.506;11.948;2024-02-28T01:13:47;42.50;;;24.93;;
7080;SDS011;3582;51.506;11.948;2024-02-28T01:16:13;30.53;;;22.03;;
7080;SDS011;3582;51.506;11.948;2024-02-28T01:18:39;37.77;;;24.13;;
7080;SDS011;3582;51.506;11.948;2024-02-28T01:21:04;31.83;;;21.27;;
7080;SDS011;3582;51.506;11.948;2024-02-28T01:23:30;32.87;;;23.23;;
7080;SDS011;3582;51.506;11.948;2024-02-28T01:25:56;40.40;;;28.17;;
7080;SDS011;3582;51.506;11.948;2024-02-28T01:28:22;36.63;;;24.13;;
7080;SDS011;3582;51.506;11.948;2024-02-28T01:30:48;36.83;;;25.50;;
7080;SDS011;3582;51.506;11.948;2024-02-28T01:33:14;36.13;;;22.97;;
7080;SDS011;3582;51.506;11.948;2024-02-28T01:35:40;36.50;;;25.07;;
7080;SDS011;3582;51.506;11.948;2024-02-28T01:38:06;33.50;;;23.23;;
7080;SDS011;3582;51.506;11.948;2024-02-28T01:40:32;32.53;;;21.27;;
7080;SDS011;3582;51.506;11.948;2024-02-28T01:43:07;41.77;;;25.03;;
7080;SDS011;3582;51.506;11.948;2024-02-28T01:45:33;28.13;;;22.10;;
7080;SDS011;3582;51.506;11.948;2024-02-28T01:48:00;31.88;;;22.80;;
7080;SDS011;3582;51.506;11.948;2024-02-28T01:50:26;44.43;;;23.63;;
7080;SDS011;3582;51.506;11.948;2024-02-28T01:52:52;33.05;;;21.17;;
7080;SDS011;3582;51.506;11.948;2024-02-28T01:55:18;32.70;;;22.80;;
7080;SDS011;3582;51.506;11.948;2024-02-28T01:57:44;33.57;;;21.30;;
7080;SDS011;3582;51.506;11.948;2024-02-28T02:00:10;33.60;;;23.90;;
7080;SDS011;3582;51.506;11.948;2024-02-28T02:02:36;30.92;;;22.60;;
7080;SDS011;3582;51.506;11.948;2024-02-28T02:05:02;31.55;;;21.52;;
7080;SDS011;3582;51.506;11.948;2024-02-28T02:07:29;30.50;;;22.27;;
7080;SDS011;3582;51.506;11.948;2024-02-28T02:09:55;29.50;;;22.25;;
7080;SDS011;3582;51.506;11.948;2024-02-28T02:12:21;32.07;;;21.73;;
7080;SDS011;3582;51.506;11.948;2024-02-28T02:14:47;33.73;;;21.47;;
7080;SDS011;3582;51.506;11.948;2024-02-28T02:17:13;30.60;;;22.88;;
7080;SDS011;3582;51.506;11.948;2024-02-28T02:19:40;34.47;;;22.42;;
7080;SDS011;3582;51.506;11.948;2024-02-28T02:22:06;30.27;;;22.42;;
7080;SDS011;3582;51.506;11.948;2024-02-28T02:24:33;28.15;;;20.13;;
7080;SDS011;3582;51.506;11.948;2024-02-28T02:26:59;31.97;;;21.93;;
7080;SDS011;3582;51.506;11.948;2024-02-28T02:29:25;39.17;;;22.80;;
7080;SDS011;3582;51.506;11.948;2024-02-28T02:31:53;32.15;;;21.98;;
7080;SDS011;3582;51.506;11.948;2024-02-28T02:34:19;32.97;;;22.23;;
7080;SDS011;3582;51.506;11.948;2024-02-28T02:36:45;28.37;;;21.00;;
7080;SDS011;3582;51.506;11.948;2024-02-28T02:39:11;34.00;;;23.37;;
7080;SDS011;3582;51.506;11.948;2024-02-28T02:41:37;30.07;;;21.57;;
7080;SDS011;3582;51.506;11.948;2024-02-28T02:44:03;25.23;;;20.00;;
7080;SDS011;3582;51.506;11.948;2024-02-28T02:46:29;29.53;;;19.90;;
7080;SDS011;3582;51.506;11.948;2024-02-28T02:48:55;31.23;;;22.33;;
7080;SDS011;3582;51.506;11.948;2024-02-28T02:51:20;30.17;;;20.10;;
7080;SDS011;3582;51.506;11.948;2024-02-28T02:53:46;26.20;;;17.80;;
7080;SDS011;3582;51.506;11.948;2024-02-28T02:56:12;27.60;;;19.70;;
7080;SDS011;3582;51.506;11.948;2024-02-28T02:58:38;29.60;;;19.80;;
7080;SDS011;3582;51.506;11.948;2024-02-28T03:01:04;26.75;;;19.42;;
7080;SDS011;3582;51.506;11.948;2024-02-28T03:03:30;29.23;;;20.40;;
7080;SDS011;3582;51.506;11.948;2024-02-28T03:05:56;25.90;;;18.43;;
7080;SDS011;3582;51.506;11.948;2024-02-28T03:08:22;30.10;;;21.07;;
7080;SDS011;3582;51.506;11.948;2024-02-28T03:10:49;29.27;;;20.30;;
7080;SDS011;3582;51.506;11.948;2024-02-28T03:13:15;26.70;;;20.33;;
7080;SDS011;3582;51.506;11.948;2024-02-28T03:15:41;33.70;;;21.33;;
7080;SDS011;3582;51.506;11.948;2024-02-28T03:18:06;31.73;;;23.13;;
7080;SDS011;3582;51.506;11.948;2024-02-28T03:20:32;29.10;;;19.50;;
7080;SDS011;3582;51.506;11.948;2024-02-28T03:22:59;31.13;;;20.67;;
7080;SDS011;3582;51.506;11.948;2024-02-28T03:25:25;31.60;;;19.83;;
7080;SDS011;3582;51.506;11.948;2024-02-28T03:27:51;30.37;;;21.77;;
7080;SDS011;3582;51.506;11.948;2024-02-28T03:30:18;32.63;;;19.95;;
7080;SDS011;3582;51.506;11.948;2024-02-28T03:32:44;34.10;;;22.48;;
7080;SDS011;3582;51.506;11.948;2024-02-28T03:35:10;30.55;;;20.65;;
7080;SDS011;3582;51.506;11.948;2024-02-28T03:37:35;31.63;;;21.60;;
7080;SDS011;3582;51.506;11.948;2024-02-28T03:40:01;31.27;;;22.13;;
7080;SDS011;3582;51.506;11.948;2024-02-28T03:42:27;33.83;;;20.93;;
7080;SDS011;3582;51.506;11.948;2024-02-28T03:44:53;23.43;;;17.63;;
7080;SDS011;3582;51.506;11.948;2024-02-28T03:47:19;29.67;;;19.48;;
7080;SDS011;3582;51.506;11.948;2024-02-28T03:49:45;35.70;;;21.90;;
7080;SDS011;3582;51.506;11.948;2024-02-28T03:52:11;29.40;;;20.07;;
7080;SDS011;3582;51.506;11.948;2024-02-28T03:54:37;30.70;;;19.07;;
7080;SDS011;3582;51.506;11.948;2024-02-28T03:57:03;27.23;;;20.80;;
7080;SDS011;3582;51.506;11.948;2024-02-28T03:59:29;25.90;;;17.33;;
7080;SDS011;3582;51.506;11.948;2024-02-28T04:01:55;31.43;;;20.70;;
7080;SDS011;3582;51.506;11.948;2024-02-28T04:04:21;27.05;;;18.27;;
7080;SDS011;3582;51.506;11.948;2024-02-28T04:06:47;25.10;;;17.83;;
7080;SDS011;3582;51.506;11.948;2024-02-28T04:09:13;24.03;;;17.27;;
7080;SDS011;3582;51.506;11.948;2024-02-28T04:11:39;26.70;;;19.27;;
7080;SDS011;3582;51.506;11.948;2024-02-28T04:14:04;29.00;;;18.37;;
7080;SDS011;3582;51.506;11.948;2024-02-28T04:16:30;24.97;;;18.10;;
7080;SDS011;3582;51.506;11.948;2024-02-28T04:18:56;23.37;;;17.43;;
7080;SDS011;3582;51.506;11.948;2024-02-28T04:21:22;28.20;;;18.13;;
7080;SDS011;3582;51.506;11.948;2024-02-28T04:23:48;28.13;;;18.40;;
7080;SDS011;3582;51.506;11.948;2024-02-28T04:26:14;22.90;;;17.10;;
7080;SDS011;3582;51.506;11.948;2024-02-28T04:28:41;26.25;;;18.13;;
7080;SDS011;3582;51.506;11.948;2024-02-28T04:31:07;24.10;;;16.60;;
7080;SDS011;3582;51.506;11.948;2024-02-28T04:33:34;23.70;;;16.17;;
7080;SDS011;3582;51.506;11.948;2024-02-28T04:36:00;19.40;;;15.65;;
7080;SDS011;3582;51.506;11.948;2024-02-28T04:38:27;26.48;;;19.38;;
7080;SDS011;3582;51.506;11.948;2024-02-28T04:40:52;28.57;;;19.00;;
7080;SDS011;3582;51.506;11.948;2024-02-28T04:43:18;27.03;;;18.70;;
7080;SDS011;3582;51.506;11.948;2024-02-28T04:45:44;25.67;;;18.00;;
7080;SDS011;3582;51.506;11.948;2024-02-28T04:48:10;24.93;;;18.47;;
7080;SDS011;3582;51.506;11.948;2024-02-28T04:50:36;27.80;;;18.20;;
7080;SDS011;3582;51.506;11.948;2024-02-28T04:53:02;24.33;;;16.70;;
7080;SDS011;3582;51.506;11.948;2024-02-28T04:55:28;22.87;;;17.03;;
7080;SDS011;3582;51.506;11.948;2024-02-28T04:57:54;27.73;;;17.67;;
7080;SDS011;3582;51.506;11.948;2024-02-28T05:00:20;23.00;;;16.50;;
7080;SDS011;3582;51.506;11.948;2024-02-28T05:02:46;24.57;;;16.47;;
7080;SDS011;3582;51.506;11.948;2024-02-28T05:05:14;28.17;;;17.35;;
7080;SDS011;3582;51.506;11.948;2024-02-28T05:07:40;24.80;;;17.90;;
7080;SDS011;3582;51.506;11.948;2024-02-28T05:10:06;26.10;;;17.47;;
7080;SDS011;3582;51.506;11.948;2024-02-28T05:12:32;25.75;;;18.00;;
7080;SDS011;3582;51.506;11.948;2024-02-28T05:14:58;29.27;;;19.17;;
7080;SDS011;3582;51.506;11.948;2024-02-28T05:17:24;24.67;;;17.67;;
7080;SDS011;3582;51.506;11.948;2024-02-28T05:19:50;20.67;;;16.07;;
7080;SDS011;3582;51.506;11.948;2024-02-28T05:22:16;26.20;;;17.60;;
7080;SDS011;3582;51.506;11.948;2024-02-28T05:24:41;24.70;;;16.60;;
7080;SDS011;3582;51.506;11.948;2024-02-28T05:27:09;29.48;;;18.40;;
7080;SDS011;3582;51.506;11.948;2024-02-28T05:29:35;26.08;;;19.40;;
7080;SDS011;3582;51.506;11.948;2024-02-28T05:32:01;32.87;;;19.13;;
7080;SDS011;3582;51.506;11.948;2024-02-28T05:34:27;24.20;;;17.47;;
7080;SDS011;3582;51.506;11.948;2024-02-28T05:36:52;26.37;;;18.13;;
7080;SDS011;3582;51.506;11.948;2024-02-28T05:39:18;26.83;;;18.00;;
7080;SDS011;3582;51.506;11.948;2024-02-28T05:41:45;26.35;;;19.00;;
7080;SDS011;3582;51.506;11.948;2024-02-28T05:44:11;27.17;;;18.50;;
7080;SDS011;3582;51.506;11.948;2024-02-28T05:46:37;23.80;;;18.07;;
7080;SDS011;3582;51.506;11.948;2024-02-28T05:49:03;26.80;;;18.37;;
7080;SDS011;3582;51.506;11.948;2024-02-28T05:51:29;28.80;;;19.65;;
7080;SDS011;3582;51.506;11.948;2024-02-28T05:53:55;23.43;;;18.00;;
7080;SDS011;3582;51.506;11.948;2024-02-28T05:56:21;24.40;;;16.17;;
7080;SDS011;3582;51.506;11.948;2024-02-28T05:58:47;27.90;;;18.13;;
7080;SDS011;3582;51.506;11.948;2024-02-28T06:01:17;27.15;;;19.40;;
7080;SDS011;3582;51.506;11.948;2024-02-28T06:03:45;21.98;;;16.83;;
7080;SDS011;3582;51.506;11.948;2024-02-28T06:06:11;35.83;;;19.67;;
7080;SDS011;3582;51.506;11.948;2024-02-28T06:08:38;28.63;;;18.77;;
7080;SDS011;3582;51.506;11.948;2024-02-28T06:11:04;22.15;;;15.48;;
7080;SDS011;3582;51.506;11.948;2024-02-28T06:13:30;26.10;;;19.50;;
7080;SDS011;3582;51.506;11.948;2024-02-28T06:15:56;27.80;;;16.45;;
7080;SDS011;3582;51.506;11.948;2024-02-28T06:18:23;32.70;;;17.63;;
7080;SDS011;3582;51.506;11.948;2024-02-28T06:20:51;30.75;;;18.55;;
7080;SDS011;3582;51.506;11.948;2024-02-28T06:23:17;29.00;;;17.50;;
7080;SDS011;3582;51.506;11.948;2024-02-28T06:25:43;25.70;;;16.70;;
7080;SDS011;3582;51.506;11.948;2024-02-28T06:28:09;26.63;;;17.10;;
7080;SDS011;3582;51.506;11.948;2024-02-28T06:30:35;30.23;;;18.10;;
7080;SDS011;3582;51.506;11.948;2024-02-28T06:33:01;22.83;;;15.00;;
7080;SDS011;3582;51.506;11.948;2024-02-28T06:35:28;28.27;;;16.95;;
7080;SDS011;3582;51.506;11.948;2024-02-28T06:37:53;22.10;;;15.83;;
7080;SDS011;3582;51.506;11.948;2024-02-28T06:40:20;24.87;;;17.13;;
7080;SDS011;3582;51.506;11.948;2024-02-28T06:42:46;25.35;;;17.20;;
7080;SDS011;3582;51.506;11.948;2024-02-28T06:45:11;25.30;;;17.10;;
7080;SDS011;3582;51.506;11.948;2024-02-28T06:47:37;24.35;;;16.27;;
7080;SDS011;3582;51.506;11.948;2024-02-28T06:50:05;24.60;;;16.63;;
7080;SDS011;3582;51.506;11.948;2024-02-28T06:52:31;25.40;;;18.05;;
7080;SDS011;3582;51.506;11.948;2024-02-28T06:54:58;27.00;;;16.70;;
7080;SDS011;3582;51.506;11.948;2024-02-28T06:57:25;26.85;;;19.23;;
7080;SDS011;3582;51.506;11.948;2024-02-28T06:59:51;19.30;;;15.03;;
7080;SDS011;3582;51.506;11.948;2024-02-28T07:02:17;20.57;;;15.07;;
7080;SDS011;3582;51.506;11.948;2024-02-28T07:04:43;20.83;;;15.33;;
7080;SDS011;3582;51.506;11.948;2024-02-28T07:07:09;20.70;;;15.03;;
7080;SDS011;3582;51.506;11.948;2024-02-28T07:09:37;26.03;;;14.90;;
7080;SDS011;3582;51.506;11.948;2024-02-28T07:12:03;28.60;;;15.93;;
7080;SDS011;3582;51.506;11.948;2024-02-28T07:14:29;21.15;;;16.02;;
7080;SDS011;3582;51.506;11.948;2024-02-28T07:16:55;22.23;;;14.70;;
7080;SDS011;3582;51.506;11.948;2024-02-28T07:19:21;27.48;;;17.50;;
7080;SDS011;3582;51.506;11.948;2024-02-28T07:21:47;28.23;;;14.87;;
7080;SDS011;3582;51.506;11.948;2024-02-28T07:24:13;23.10;;;15.03;;
7080;SDS011;3582;51.506;11.948;2024-02-28T07:26:39;26.37;;;14.93;;
7080;SDS011;3582;51.506;11.948;2024-02-28T07:29:06;21.05;;;15.45;;
7080;SDS011;3582;51.506;11.948;2024-02-28T07:31:32;19.83;;;16.17;;
7080;SDS011;3582;51.506;11.948;2024-02-28T07:33:58;18.57;;;14.37;;
7080;SDS011;3582;51.506;11.948;2024-02-28T07:36:24;22.93;;;14.63;;
7080;SDS011;3582;51.506;11.948;2024-02-28T07:38:50;23.67;;;17.57;;
7080;SDS011;3582;51.506;11.948;2024-02-28T07:41:17;24.67;;;16.58;;
7080;SDS011;3582;51.506;11.948;2024-02-28T07:43:43;24.23;;;17.00;;
7080;SDS011;3582;51.506;11.948;2024-02-28T07:46:09;25.80;;;16.98;;
7080;SDS011;3582;51.506;11.948;2024-02-28T07:48:36;28.65;;;15.82;;
7080;SDS011;3582;51.506;11.948;2024-02-28T07:51:05;27.70;;;17.75;;
7080;SDS011;3582;51.506;11.948;2024-02-28T07:53:31;22.77;;;16.15;;
7080;SDS011;3582;51.506;11.948;2024-02-28T07:55:57;22.50;;;15.10;;
7080;SDS011;3582;51.506;11.948;2024-02-28T07:58:23;22.70;;;16.10;;
7080;SDS011;3582;51.506;11.948;2024-02-28T08:00:49;18.87;;;16.37;;
7080;SDS011;3582;51.506;11.948;2024-02-28T08:03:17;23.95;;;15.63;;
7080;SDS011;3582;51.506;11.948;2024-02-28T08:05:43;22.90;;;15.67;;
7080;SDS011;3582;51.506;11.948;2024-02-28T08:08:09;30.70;;;16.17;;
7080;SDS011;3582;51.506;11.948;2024-02-28T08:10:36;19.70;;;15.75;;
7080;SDS011;3582;51.506;11.948;2024-02-28T08:13:02;27.52;;;15.90;;
7080;SDS011;3582;51.506;11.948;2024-02-28T08:15:28;24.58;;;17.15;;
7080;SDS011;3582;51.506;11.948;2024-02-28T08:17:54;31.20;;;17.67;;
7080;SDS011;3582;51.506;11.948;2024-02-28T08:20:20;20.97;;;14.37;;
7080;SDS011;3582;51.506;11.948;2024-02-28T08:22:46;21.47;;;15.10;;
7080;SDS011;3582;51.506;11.948;2024-02-28T08:25:12;23.73;;;14.40;;
7080;SDS011;3582;51.506;11.948;2024-02-28T08:27:39;24.92;;;15.32;;
7080;SDS011;3582;51.506;11.948;2024-02-28T08:30:05;21.08;;;16.42;;
7080;SDS011;3582;51.506;11.948;2024-02-28T08:32:32;21.92;;;15.30;;
7080;SDS011;3582;51.506;11.948;2024-02-28T08:34:57;18.63;;;14.63;;
7080;SDS011;3582;51.506;11.948;2024-02-28T08:37:24;21.30;;;15.90;;
7080;SDS011;3582;51.506;11.948;2024-02-28T08:39:51;22.65;;;13.02;;
7080;SDS011;3582;51.506;11.948;2024-02-28T08:42:17;18.03;;;13.37;;
7080;SDS011;3582;51.506;11.948;2024-02-28T08:44:43;19.17;;;14.33;;
7080;SDS011;3582;51.506;11.948;2024-02-28T08:47:09;22.50;;;14.80;;
7080;SDS011;3582;51.506;11.948;2024-02-28T08:49:38;19.25;;;16.52;;
7080;SDS011;3582;51.506;11.948;2024-02-28T08:52:04;21.65;;;15.38;;
7080;SDS011;3582;51.506;11.948;2024-02-28T08:54:30;28.23;;;17.50;;
7080;SDS011;3582;51.506;11.948;2024-02-28T08:56:56;19.48;;;13.93;;
7080;SDS011;3582;51.506;11.948;2024-02-28T08:59:22;24.03;;;16.80;;
7080;SDS011;3582;51.506;11.948;2024-02-28T09:01:48;20.05;;;13.98;;
7080;SDS011;3582;51.506;11.948;2024-02-28T09:04:14;28.00;;;16.75;;
7080;SDS011;3582;51.506;11.948;2024-02-28T09:06:40;24.40;;;16.20;;
7080;SDS011;3582;51.506;11.948;2024-02-28T09:09:06;19.73;;;15.45;;
7080;SDS011;3582;51.506;11.948;2024-02-28T09:11:32;20.33;;;14.50;;
7080;SDS011;3582;51.506;11.948;2024-02-28T09:13:58;22.30;;;16.53;;
7080;SDS011;3582;51.506;11.948;2024-02-28T09:16:24;22.70;;;15.88;;
7080;SDS011;3582;51.506;11.948;2024-02-28T09:18:50;24.07;;;16.10;;
7080;SDS011;3582;51.506;11.948;2024-02-28T09:21:16;21.43;;;14.77;;
7080;SDS011;3582;51.506;11.948;2024-02-28T09:23:42;18.20;;;14.60;;
7080;SDS011;3582;51.506;11.948;2024-02-28T09:26:08;20.70;;;15.00;;
7080;SDS011;3582;51.506;11.948;2024-02-28T09:28:35;23.25;;;14.50;;
7080;SDS011;3582;51.506;11.948;2024-02-28T09:31:01;20.47;;;13.63;;
7080;SDS011;3582;51.506;11.948;2024-02-28T09:33:27;24.55;;;16.25;;
7080;SDS011;3582;51.506;11.948;2024-02-28T09:35:53;21.10;;;14.67;;
7080;SDS011;3582;51.506;11.948;2024-02-28T09:38:19;16.93;;;14.13;;
7080;SDS011;3582;51.506;11.948;2024-02-28T09:40:45;19.08;;;14.88;;
7080;SDS011;3582;51.506;11.948;2024-02-28T09:43:30;21.38;;;17.30;;
7080;SDS011;3582;51.506;11.948;2024-02-28T09:45:59;18.25;;;14.95;;
7080;SDS011;3582;51.506;11.948;2024-02-28T09:48:26;21.38;;;16.40;;
7080;SDS011;3582;51.506;11.948;2024-02-28T09:50:58;21.92;;;14.38;;
7080;SDS011;3582;51.506;11.948;2024-02-28T09:53:25;21.55;;;16.13;;
7080;SDS011;3582;51.506;11.948;2024-02-28T09:55:51;24.70;;;20.13;;
7080;SDS011;3582;51.506;11.948;2024-02-28T09:58:17;19.97;;;14.90;;
7080;SDS011;3582;51.506;11.948;2024-02-28T10:00:44;19.20;;;14.55;;
7080;SDS011;3582;51.506;11.948;2024-02-28T10:03:16;21.63;;;16.23;;
7080;SDS011;3582;51.506;11.948;2024-02-28T10:05:48;23.23;;;14.93;;
7080;SDS011;3582;51.506;11.948;2024-02-28T10:08:14;18.58;;;14.88;;
7080;SDS011;3582;51.506;11.948;2024-02-28T10:10:47;19.67;;;15.93;;
7080;SDS011;3582;51.506;11.948;2024-02-28T10:13:16;23.02;;;17.92;;
7080;SDS011;3582;51.506;11.948;2024-02-28T10:15:42;25.20;;;18.10;;
7080;SDS011;3582;51.506;11.948;2024-02-28T10:18:08;21.13;;;16.17;;
7080;SDS011;3582;51.506;11.948;2024-02-28T10:20:34;21.97;;;15.70;;
7080;SDS011;3582;51.506;11.948;2024-02-28T10:23:06;21.55;;;16.58;;
7080;SDS011;3582;51.506;11.948;2024-02-28T10:25:43;22.05;;;17.38;;
7080;SDS011;3582;51.506;11.948;2024-02-28T10:28:10;23.48;;;16.13;;
7080;SDS011;3582;51.506;11.948;2024-02-28T10:30:42;21.27;;;16.48;;
7080;SDS011;3582;51.506;11.948;2024-02-28T10:33:14;19.58;;;16.13;;
7080;SDS011;3582;51.506;11.948;2024-02-28T10:35:40;25.40;;;16.52;;
7080;SDS011;3582;51.506;11.948;2024-02-28T10:38:10;24.25;;;18.08;;
7080;SDS011;3582;51.506;11.948;2024-02-28T10:40:36;23.00;;;16.15;;
7080;SDS011;3582;51.506;11.948;2024-02-28T10:43:02;23.58;;;16.15;;
7080;SDS011;3582;51.506;11.948;2024-02-28T10:45:31;24.17;;;16.50;;
7080;SDS011;3582;51.506;11.948;2024-02-28T10:47:57;22.60;;;16.35;;
7080;SDS011;3582;51.506;11.948;2024-02-28T10:50:23;22.33;;;17.00;;
7080;SDS011;3582;51.506;11.948;2024-02-28T10:52:49;24.00;;;16.30;;
7080;SDS011;3582;51.506;11.948;2024-02-28T10:55:22;23.67;;;15.40;;
7080;SDS011;3582;51.506;11.948;2024-02-28T10:57:50;19.75;;;15.43;;
7080;SDS011;3582;51.506;11.948;2024-02-28T11:00:19;25.83;;;18.85;;
7080;SDS011;3582;51.506;11.948;2024-02-28T11:02:45;20.43;;;15.97;;
7080;SDS011;3582;51.506;11.948;2024-02-28T11:05:13;18.10;;;14.68;;
7080;SDS011;3582;51.506;11.948;2024-02-28T11:07:40;26.03;;;18.20;;
7080;SDS011;3582;51.506;11.948;2024-02-28T11:10:07;18.55;;;13.77;;
7080;SDS011;3582;51.506;11.948;2024-02-28T11:12:35;21.50;;;16.75;;
7080;SDS011;3582;51.506;11.948;2024-02-28T11:15:03;18.00;;;14.45;;
7080;SDS011;3582;51.506;11.948;2024-02-28T11:17:32;17.58;;;14.20;;
7080;SDS011;3582;51.506;11.948;2024-02-28T11:19:58;15.77;;;13.65;;
7080;SDS011;3582;51.506;11.948;2024-02-28T11:22:27;18.70;;;15.30;;
7080;SDS011;3582;51.506;11.948;2024-02-28T11:24:54;20.85;;;16.13;;
7080;SDS011;3582;51.506;11.948;2024-02-28T11:27:22;20.55;;;15.10;;
7080;SDS011;3582;51.506;11.948;2024-02-28T11:29:48;16.50;;;14.30;;
7080;SDS011;3582;51.506;11.948;2024-02-28T11:32:14;20.73;;;15.07;;
7080;SDS011;3582;51.506;11.948;2024-02-28T11:34:41;16.67;;;14.95;;
7080;SDS011;3582;51.506;11.948;2024-02-28T11:37:08;19.40;;;15.27;;
7080;SDS011;3582;51.506;11.948;2024-02-28T11:39:34;19.48;;;15.07;;
7080;SDS011;3582;51.506;11.948;2024-02-28T11:44:38;17.93;;;14.17;;
7080;SDS011;3582;51.506;11.948;2024-02-28T11:47:04;17.83;;;14.00;;
7080;SDS011;3582;51.506;11.948;2024-02-28T11:49:32;18.40;;;15.37;;
7080;SDS011;3582;51.506;11.948;2024-02-28T11:51:58;14.33;;;12.83;;
7080;SDS011;3582;51.506;11.948;2024-02-28T11:54:24;16.40;;;14.70;;
7080;SDS011;3582;51.506;11.948;2024-02-28T11:56:50;14.87;;;13.27;;
7080;SDS011;3582;51.506;11.948;2024-02-28T11:59:16;16.53;;;14.40;;
7080;SDS011;3582;51.506;11.948;2024-02-28T12:01:43;15.40;;;13.07;;
7080;SDS011;3582;51.506;11.948;2024-02-28T12:04:09;16.80;;;14.60;;
7080;SDS011;3582;51.506;11.948;2024-02-28T12:06:38;17.40;;;14.87;;
7080;SDS011;3582;51.506;11.948;2024-02-28T12:09:08;15.17;;;13.13;;
7080;SDS011;3582;51.506;11.948;2024-02-28T12:11:34;19.40;;;16.03;;
7080;SDS011;3582;51.506;11.948;2024-02-28T12:14:04;15.40;;;13.80;;
7080;SDS011;3582;51.506;11.948;2024-02-28T12:16:33;19.80;;;14.40;;
7080;SDS011;3582;51.506;11.948;2024-02-28T12:18:59;18.23;;;13.50;;
7080;SDS011;3582;51.506;11.948;2024-02-28T12:21:25;17.73;;;14.83;;
7080;SDS011;3582;51.506;11.948;2024-02-28T12:23:51;16.50;;;12.80;;
7080;SDS011;3582;51.506;11.948;2024-02-28T12:26:17;14.37;;;11.70;;
7080;SDS011;3582;51.506;11.948;2024-02-28T12:28:44;14.23;;;12.30;;
7080;SDS011;3582;51.506;11.948;2024-02-28T12:31:10;13.10;;;11.00;;
7080;SDS011;3582;51.506;11.948;2024-02-28T12:33:37;16.33;;;12.07;;
7080;SDS011;3582;51.506;11.948;2024-02-28T12:36:03;14.98;;;11.52;;
7080;SDS011;3582;51.506;11.948;2024-02-28T12:38:29;18.25;;;13.98;;
7080;SDS011;3582;51.506;11.948;2024-02-28T12:40:55;16.45;;;12.68;;
7080;SDS011;3582;51.506;11.948;2024-02-28T12:43:22;21.17;;;13.20;;
7080;SDS011;3582;51.506;11.948;2024-02-28T12:45:47;19.53;;;12.23;;
7080;SDS011;3582;51.506;11.948;2024-02-28T12:48:13;17.13;;;12.37;;
7080;SDS011;3582;51.506;11.948;2024-02-28T12:50:39;15.40;;;10.93;;
7080;SDS011;3582;51.506;11.948;2024-02-28T12:53:05;16.20;;;13.60;;
7080;SDS011;3582;51.506;11.948;2024-02-28T12:55:31;15.30;;;12.43;;
7080;SDS011;3582;51.506;11.948;2024-02-28T12:57:57;17.27;;;12.10;;
7080;SDS011;3582;51.506;11.948;2024-02-28T13:00:26;14.37;;;12.20;;
7080;SDS011;3582;51.506;11.948;2024-02-28T13:02:52;13.47;;;10.60;;
7080;SDS011;3582;51.506;11.948;2024-02-28T13:05:20;12.30;;;7.90;;
7080;SDS011;3582;51.506;11.948;2024-02-28T13:07:46;12.97;;;11.30;;
7080;SDS011;3582;51.506;11.948;2024-02-28T13:10:12;11.00;;;8.83;;
7080;SDS011;3582;51.506;11.948;2024-02-28T13:12:38;11.67;;;9.97;;
7080;SDS011;3582;51.506;11.948;2024-02-28T13:15:05;13.70;;;9.73;;
7080;SDS011;3582;51.506;11.948;2024-02-28T13:17:31;15.07;;;9.67;;
7080;SDS011;3582;51.506;11.948;2024-02-28T13:19:57;10.93;;;9.17;;
7080;SDS011;3582;51.506;11.948;2024-02-28T13:22:23;12.73;;;10.90;;
7080;SDS011;3582;51.506;11.948;2024-02-28T13:24:49;9.87;;;7.57;;
7080;SDS011;3582;51.506;11.948;2024-02-28T13:27:15;13.80;;;10.87;;
7080;SDS011;3582;51.506;11.948;2024-02-28T13:29:41;11.27;;;8.93;;
7080;SDS011;3582;51.506;11.948;2024-02-28T13:32:07;13.93;;;9.60;;
7080;SDS011;3582;51.506;11.948;2024-02-28T13:34:33;13.00;;;8.67;;
7080;SDS011;3582;51.506;11.948;2024-02-28T13:36:59;11.30;;;9.63;;
7080;SDS011;3582;51.506;11.948;2024-02-28T13:39:25;9.80;;;8.80;;
7080;SDS011;3582;51.506;11.948;2024-02-28T13:41:52;13.00;;;10.27;;
7080;SDS011;3582;51.506;11.948;2024-02-28T13:44:18;12.17;;;8.67;;
7080;SDS011;3582;51.506;11.948;2024-02-28T13:46:44;13.17;;;10.13;;
7080;SDS011;3582;51.506;11.948;2024-02-28T13:49:10;13.38;;;11.90;;
7080;SDS011;3582;51.506;11.948;2024-02-28T13:51:37;11.40;;;10.25;;
7080;SDS011;3582;51.506;11.948;2024-02-28T13:54:03;15.17;;;9.47;;
7080;SDS011;3582;51.506;11.948;2024-02-28T13:56:29;16.40;;;10.07;;
7080;SDS011;3582;51.506;11.948;2024-02-28T13:58:56;11.00;;;8.82;;
7080;SDS011;3582;51.506;11.948;2024-02-28T14:01:21;14.82;;;11.88;;
7080;SDS011;3582;51.506;11.948;2024-02-28T14:03:47;13.50;;;10.67;;
7080;SDS011;3582;51.506;11.948;2024-02-28T14:06:13;17.20;;;12.87;;
7080;SDS011;3582;51.506;11.948;2024-02-28T14:08:39;12.17;;;10.87;;
7080;SDS011;3582;51.506;11.948;2024-02-28T14:11:05;16.93;;;10.20;;
7080;SDS011;3582;51.506;11.948;2024-02-28T14:13:31;15.80;;;11.67;;
7080;SDS011;3582;51.506;11.948;2024-02-28T14:15:57;14.63;;;11.53;;
7080;SDS011;3582;51.506;11.948;2024-02-28T14:18:23;13.90;;;10.73;;
7080;SDS011;3582;51.506;11.948;2024-02-28T14:20:49;14.60;;;12.33;;
7080;SDS011;3582;51.506;11.948;2024-02-28T14:23:15;14.43;;;10.35;;
7080;SDS011;3582;51.506;11.948;2024-02-28T14:25:42;14.18;;;10.82;;
7080;SDS011;3582;51.506;11.948;2024-02-28T14:28:08;16.10;;;11.17;;
7080;SDS011;3582;51.506;11.948;2024-02-28T14:30:34;11.97;;;10.50;;
7080;SDS011;3582;51.506;11.948;2024-02-28T14:33:00;13.60;;;10.30;;